Cozumel, Mexico

11:27 AM CDT on October 02, 2014 (GMT -0500)
Hacienda Monte Cristo | Change Station
CLOSE
Current Station
Personal Weather Station
Location: Cozumel, QR
Elevation: 60 ft
Nearby Weather Stations

Elev 60 ft 20.55 °N, 86.92 °W | Updated 10 minutes ago

Scattered Clouds
Scattered Clouds
87.4 °F
Feels Like 102 °F
N
9.0
Wind Variable Wind from ENE
Gusts 17.0 mph

Today
High -- | Low -- °F
--% Chance of Precip.
Yesterday
High -- | Low -- °F
Precip. -- in
6:39 AM 6:34 PM
First Quarter, 60% visible
Pressure 30.01 in
Visibility 7.0 miles
Clouds Scattered Clouds 2000 ft
Heat Index 102 °F
Dew Point 79 °F
Humidity 77%
Rainfall 0.00 in
Snow Depth Not available.
UV 9 out of 12
Pollen Not available.
Air Quality Not available.
Flu Activity Not available.
METAR MMUN 021546Z 15013KT 7SM SCT020 31/25 A3001 RMK 8/100 MDT CU TCU/SE CI

More Conditions Fewer Conditions

Pressure 30.01 in
Visibility 7.0 miles
Clouds Scattered Clouds 2000 ft
Heat Index 102 °F
Dew Point 79 °F
Humidity 77%
Rainfall 0.00 in
Snow Depth Not available.
UV 9 out of 12
Pollen Not available.
Air Quality Not available.
Flu Activity Not available.
METAR MMUN 021546Z 15013KT 7SM SCT020 31/25 A3001 RMK 8/100 MDT CU TCU/SE CI

More Conditions Fewer Conditions

10-Day Weather Forecast

Almanac

Astronomy

Oct. 02, 2014 Rise Set
Actual Time 6:39 AM CDT 6:34 PM CDT
Civil Twilight 6:16 AM CDT 6:56 PM CDT
Nautical Twilight 5:51 AM CDT 7:22 PM CDT
Astronomical Twilight 5:25 AM CDT 7:48 PM CDT
Moon 2:01 PM CDT 12:37 AM CDT
Length of Visible Light 12h 39m
Length of Day
11h 55m
Tomorrow will be 1m 9s shorter.
First Quarter, 60% of the Moon is Illuminated
Today
First Quarter
Oct 8
Full
Oct 15
Last Quarter
Oct 23
New
Oct 30
First Quarter

Today's Extremes

Country Highs Country Lows

Community

WunderPhotos

Upload Photos

1,758,290 photos uploaded!

WunderBlogs® & News

Nearby

Snow Depth

Not available.

Earthquake Activity

City Distance Mag. Time & Date
No recent earthquake activity has been reported nearby.
Minimum magnitude displayed is 2.5.

Coastal Water Temperatures

Place Temperature
No Stations Reporting

Nearby Weather Stations